Time;durP1;ratioP1;P1;durP2;ratioP2;P2;SDS_P1;SDS_P2;PMS_P1;PMS_P2;Temp;Humidity;BMP_temperature;BMP_pressure;BME280_temperature;BME280_humidity;BME280_pressure;Samples;Min_cycle;Max_cycle;Signal;HPM_P1;HPM_P2
2022/11/25 00:01:26;;;;;;;3.20;1.63;;;;;;;;;;5036910;28;20228;-61
2022/11/25 00:03:54;;;;;;;3.43;1.77;;;;;;;;;;5039803;28;20658;-61
2022/11/25 00:06:23;;;;;;;3.63;1.10;;;;;;;;;;5038214;28;20291;-61
2022/11/25 00:08:50;;;;;;;8.20;1.80;;;;;;;;;;5037252;28;20211;-61
2022/11/25 00:11:18;;;;;;;2.53;1.43;;;;;;;;;;5038353;28;20207;-61
2022/11/25 00:13:46;;;;;;;3.70;1.67;;;;;;;;;;5037234;28;20262;-61
2022/11/25 00:16:14;;;;;;;2.43;1.73;;;;;;;;;;5035286;28;20223;-60
2022/11/25 00:18:41;;;;;;;1.50;1.50;;;;;;;;;;5037540;28;20208;-61
2022/11/25 00:21:09;;;;;;;5.90;2.10;;;;;;;;;;5037227;28;20203;-61
2022/11/25 00:23:37;;;;;;;6.27;1.73;;;;;;;;;;5036435;28;20200;-61
2022/11/25 00:26:09;;;;;;;5.13;1.90;;;;;;;;;;5037016;28;20196;-61
2022/11/25 00:28:36;;;;;;;1.93;1.63;;;;;;;;;;5036099;28;20222;-61
2022/11/25 00:31:07;;;;;;;1.70;1.60;;;;;;;;;;5037583;28;20212;-61
2022/11/25 00:33:34;;;;;;;2.13;1.93;;;;;;;;;;5035590;28;20292;-61
2022/11/25 00:36:02;;;;;;;4.27;1.67;;;;;;;;;;5036362;28;20231;-61
2022/11/25 00:38:29;;;;;;;6.10;2.03;;;;;;;;;;5037366;28;20688;-61
2022/11/25 00:46:23;;;;;;;5.10;1.37;;;;;;;;;;5037087;28;20215;-61
2022/11/25 00:48:50;;;;;;;3.33;1.63;;;;;;;;;;5040009;28;20212;-59
2022/11/25 00:51:18;;;;;;;6.50;1.73;;;;;;;;;;5041774;28;20230;-58
2022/11/25 00:53:45;;;;;;;2.50;1.77;;;;;;;;;;5040331;28;20213;-59
2022/11/25 00:56:14;;;;;;;1.53;1.43;;;;;;;;;;5041371;28;20236;-59
2022/11/25 00:58:41;;;;;;;3.07;1.70;;;;;;;;;;5039150;28;20240;-59
2022/11/25 01:01:08;;;;;;;2.23;1.00;;;;;;;;;;5040868;28;20203;-59
2022/11/25 01:03:36;;;;;;;2.60;1.67;;;;;;;;;;5041814;28;20214;-60
2022/11/25 01:06:03;;;;;;;1.23;1.23;;;;;;;;;;5038469;28;20235;-59
2022/11/25 01:08:30;;;;;;;1.30;1.30;;;;;;;;;;5036296;28;20212;-59
2022/11/25 01:10:59;;;;;;;1.60;1.50;;;;;;;;;;5033533;28;20216;-59
2022/11/25 01:13:28;;;;;;;2.03;1.83;;;;;;;;;;5030261;28;20196;-59
2022/11/25 01:15:55;;;;;;;4.43;1.20;;;;;;;;;;5037215;28;20200;-60
2022/11/25 01:18:22;;;;;;;2.30;2.07;;;;;;;;;;5044962;28;20223;-60
2022/11/25 01:20:49;;;;;;;4.57;1.37;;;;;;;;;;5047454;28;20282;-60
2022/11/25 01:23:16;;;;;;;3.17;1.70;;;;;;;;;;5046543;28;20209;-60
2022/11/25 01:25:43;;;;;;;1.80;1.70;;;;;;;;;;5048407;28;20595;-59
2022/11/25 01:28:12;;;;;;;4.77;1.77;;;;;;;;;;5037579;28;20675;-60
2022/11/25 01:30:41;;;;;;;2.57;1.83;;;;;;;;;;5032917;28;20205;-59
2022/11/25 01:33:08;;;;;;;2.20;1.13;;;;;;;;;;5033480;28;20694;-60
2022/11/25 01:35:37;;;;;;;1.47;1.30;;;;;;;;;;5045896;28;20216;-60
2022/11/25 01:38:04;;;;;;;2.20;1.33;;;;;;;;;;5041074;28;20227;-60
2022/11/25 01:40:31;;;;;;;1.97;1.73;;;;;;;;;;5039247;28;20235;-60
2022/11/25 01:42:58;;;;;;;5.37;1.27;;;;;;;;;;5034807;28;20201;-60
2022/11/25 01:45:36;;;;;;;2.10;1.63;;;;;;;;;;5034714;28;20722;-60
2022/11/25 01:48:07;;;;;;;4.00;1.10;;;;;;;;;;5037175;28;20200;-60
2022/11/25 01:50:35;;;;;;;1.03;1.03;;;;;;;;;;5039859;28;20626;-60
2022/11/25 01:53:05;;;;;;;3.50;1.40;;;;;;;;;;5039134;28;20307;-60
2022/11/25 01:55:34;;;;;;;3.07;1.87;;;;;;;;;;5045746;28;20224;-61
2022/11/25 01:58:03;;;;;;;5.00;1.70;;;;;;;;;;5042092;28;20243;-60
2022/11/25 02:00:30;;;;;;;1.50;1.40;;;;;;;;;;5038705;28;20308;-60
2022/11/25 02:02:58;;;;;;;1.60;1.30;;;;;;;;;;5035149;28;20200;-60
2022/11/25 02:05:36;;;;;;;1.77;1.43;;;;;;;;;;5039183;28;20228;-60
2022/11/25 02:08:05;;;;;;;2.80;1.50;;;;;;;;;;5038577;28;20286;-60
2022/11/25 02:10:33;;;;;;;4.73;1.70;;;;;;;;;;5049341;28;20637;-60
2022/11/25 02:13:00;;;;;;;1.13;1.13;;;;;;;;;;5035638;28;20687;-60
2022/11/25 02:15:29;;;;;;;2.63;1.43;;;;;;;;;;5044250;28;20289;-60
2022/11/25 02:17:56;;;;;;;1.53;1.43;;;;;;;;;;5033651;28;20251;-60
2022/11/25 02:20:24;;;;;;;8.20;1.43;;;;;;;;;;5030539;28;20724;-60
2022/11/25 02:22:56;;;;;;;5.70;1.57;;;;;;;;;;5031548;28;20205;-60
2022/11/25 02:25:26;;;;;;;2.60;1.97;;;;;;;;;;5034543;28;20303;-60
2022/11/25 02:27:55;;;;;;;1.60;1.50;;;;;;;;;;5040466;28;20204;-60
2022/11/25 02:30:22;;;;;;;6.90;1.70;;;;;;;;;;5030174;28;20239;-60
2022/11/25 02:32:50;;;;;;;1.00;1.00;;;;;;;;;;5037771;28;20745;-60
2022/11/25 02:35:28;;;;;;;2.50;1.20;;;;;;;;;;5037653;28;20291;-60
2022/11/25 02:37:57;;;;;;;1.73;1.37;;;;;;;;;;5044679;28;20796;-60
2022/11/25 02:40:26;;;;;;;5.87;1.53;;;;;;;;;;5043520;28;20211;-60
2022/11/25 02:42:54;;;;;;;2.13;1.13;;;;;;;;;;5039060;28;20200;-59
2022/11/25 02:45:23;;;;;;;2.53;1.30;;;;;;;;;;5035725;28;20738;-60
2022/11/25 02:47:50;;;;;;;1.20;0.97;;;;;;;;;;5035031;28;20205;-60
2022/11/25 02:50:17;;;;;;;4.30;1.63;;;;;;;;;;5041753;28;20235;-60
2022/11/25 02:52:44;;;;;;;2.27;1.43;;;;;;;;;;5041452;28;20691;-60
2022/11/25 02:55:11;;;;;;;2.47;1.97;;;;;;;;;;5045119;28;20224;-60
2022/11/25 02:57:40;;;;;;;1.63;1.47;;;;;;;;;;5043110;28;20290;-60
2022/11/25 03:00:08;;;;;;;1.83;1.60;;;;;;;;;;5044468;28;20199;-60
2022/11/25 03:02:35;;;;;;;2.47;1.23;;;;;;;;;;5032440;28;20598;-61
2022/11/25 03:05:02;;;;;;;3.33;1.47;;;;;;;;;;5030079;28;20208;-61
2022/11/25 03:07:30;;;;;;;1.67;1.27;;;;;;;;;;5032898;28;20219;-60
2022/11/25 03:09:57;;;;;;;8.50;1.63;;;;;;;;;;5039736;28;20200;-60
2022/11/25 03:12:24;;;;;;;5.17;1.13;;;;;;;;;;5031908;28;20204;-60
2022/11/25 03:14:52;;;;;;;10.13;1.90;;;;;;;;;;5038116;28;20662;-60
2022/11/25 03:17:19;;;;;;;3.33;2.27;;;;;;;;;;5035030;28;20223;-60
2022/11/25 03:19:47;;;;;;;1.63;1.53;;;;;;;;;;5044781;28;20586;-60
2022/11/25 03:22:14;;;;;;;1.20;1.20;;;;;;;;;;5038107;28;20200;-60
2022/11/25 03:24:41;;;;;;;13.33;1.83;;;;;;;;;;5046415;28;20208;-60
2022/11/25 03:27:08;;;;;;;8.27;1.83;;;;;;;;;;5042195;28;20215;-60
2022/11/25 03:29:35;;;;;;;3.20;1.47;;;;;;;;;;5029998;28;20314;-61
2022/11/25 03:32:04;;;;;;;1.87;1.77;;;;;;;;;;5032078;28;20212;-60
2022/11/25 03:34:31;;;;;;;2.17;1.30;;;;;;;;;;5029774;28;20220;-60
2022/11/25 03:36:58;;;;;;;1.67;1.43;;;;;;;;;;5029016;28;20224;-60
2022/11/25 03:39:25;;;;;;;3.13;1.80;;;;;;;;;;5040838;28;20212;-60
2022/11/25 03:41:52;;;;;;;2.10;0.97;;;;;;;;;;5037620;28;20211;-61
2022/11/25 03:44:19;;;;;;;1.50;1.30;;;;;;;;;;5028919;28;20200;-60
2022/11/25 03:46:46;;;;;;;1.33;1.23;;;;;;;;;;5039173;28;20215;-60
2022/11/25 03:49:15;;;;;;;4.73;1.37;;;;;;;;;;5044125;28;20203;-60
2022/11/25 03:51:42;;;;;;;9.70;2.40;;;;;;;;;;5034318;28;20280;-60
2022/11/25 03:54:09;;;;;;;1.50;1.40;;;;;;;;;;5043699;28;20207;-61
2022/11/25 03:56:36;;;;;;;1.83;1.47;;;;;;;;;;5032765;28;20678;-62
2022/11/25 03:59:03;;;;;;;1.30;1.20;;;;;;;;;;5038104;28;20279;-60
2022/11/25 04:01:30;;;;;;;2.30;1.63;;;;;;;;;;5030595;28;20209;-61
2022/11/25 04:03:57;;;;;;;9.93;1.53;;;;;;;;;;5035922;28;20674;-61
2022/11/25 04:06:26;;;;;;;4.10;2.10;;;;;;;;;;5031168;28;20227;-61
2022/11/25 04:08:53;;;;;;;6.47;1.73;;;;;;;;;;5037417;28;20662;-62
2022/11/25 04:11:20;;;;;;;3.13;1.60;;;;;;;;;;5031457;28;20201;-61
2022/11/25 04:13:46;;;;;;;2.27;2.07;;;;;;;;;;5031547;28;20200;-62
2022/11/25 04:16:20;;;;;;;7.00;1.83;;;;;;;;;;5033984;28;20617;-61
2022/11/25 04:18:47;;;;;;;2.20;2.00;;;;;;;;;;5039331;28;20224;-59
2022/11/25 04:21:20;;;;;;;2.17;2.07;;;;;;;;;;5028953;28;20196;-59
2022/11/25 04:23:49;;;;;;;4.67;1.40;;;;;;;;;;5037418;28;20211;-60
2022/11/25 04:26:16;;;;;;;4.10;1.60;;;;;;;;;;5037039;28;20457;-60
2022/11/25 04:28:43;;;;;;;3.17;1.73;;;;;;;;;;5038502;28;20203;-60
2022/11/25 04:31:10;;;;;;;6.97;2.40;;;;;;;;;;5043196;28;20218;-60
2022/11/25 04:33:37;;;;;;;8.00;2.03;;;;;;;;;;5030236;28;20678;-60
2022/11/25 04:36:07;;;;;;;5.97;2.00;;;;;;;;;;5037394;28;20239;-60
2022/11/25 04:38:34;;;;;;;10.67;1.97;;;;;;;;;;5035460;28;20278;-60
2022/11/25 04:41:02;;;;;;;5.47;2.30;;;;;;;;;;5041487;28;20692;-60
2022/11/25 04:43:29;;;;;;;2.63;1.67;;;;;;;;;;5031918;28;20197;-61
2022/11/25 04:45:56;;;;;;;4.40;1.97;;;;;;;;;;5028319;28;20206;-59
2022/11/25 04:48:24;;;;;;;9.03;2.00;;;;;;;;;;5039276;28;20192;-60
2022/11/25 04:50:51;;;;;;;2.77;1.90;;;;;;;;;;5028592;28;20208;-60
2022/11/25 04:53:19;;;;;;;2.00;1.90;;;;;;;;;;5033990;28;20220;-60
2022/11/25 04:55:46;;;;;;;4.03;1.83;;;;;;;;;;5040661;28;20254;-60
2022/11/25 04:59:38;;;;;;;1.70;1.60;;;;;;;;;;5031224;28;20244;-61
2022/11/25 05:01:01;;;;;;;2.73;2.53;;;;;;;;;;5041464;28;20214;-60
2022/11/25 05:03:28;;;;;;;8.67;2.83;;;;;;;;;;5036799;28;20232;-60
2022/11/25 05:05:55;;;;;;;9.27;3.40;;;;;;;;;;5029647;28;20202;-60
2022/11/25 05:08:22;;;;;;;3.63;3.17;;;;;;;;;;5030821;28;20209;-61
2022/11/25 05:10:49;;;;;;;4.60;2.23;;;;;;;;;;5034026;28;20205;-61
2022/11/25 05:13:17;;;;;;;6.80;2.50;;;;;;;;;;5036521;28;20196;-60
2022/11/25 05:15:44;;;;;;;5.00;2.77;;;;;;;;;;5031087;28;20208;-61
2022/11/25 05:18:11;;;;;;;2.37;2.27;;;;;;;;;;5029470;28;21967;-61
2022/11/25 05:20:38;;;;;;;3.07;1.77;;;;;;;;;;5030193;28;20204;-60
2022/11/25 05:23:06;;;;;;;2.00;1.90;;;;;;;;;;5043295;28;20211;-61
2022/11/25 05:25:33;;;;;;;6.33;2.23;;;;;;;;;;5046335;28;20941;-60
2022/11/25 05:28:01;;;;;;;5.60;2.13;;;;;;;;;;5046593;28;20726;-61
2022/11/25 05:30:29;;;;;;;3.43;1.93;;;;;;;;;;5039931;28;20200;-59
2022/11/25 05:32:56;;;;;;;5.67;2.30;;;;;;;;;;5046359;28;20207;-59
2022/11/25 05:35:23;;;;;;;5.67;2.13;;;;;;;;;;5049514;28;20222;-59
2022/11/25 05:37:50;;;;;;;2.80;2.03;;;;;;;;;;5047987;28;20234;-59
2022/11/25 05:40:17;;;;;;;3.40;2.00;;;;;;;;;;5041679;28;20219;-60
2022/11/25 05:42:44;;;;;;;4.40;2.10;;;;;;;;;;5038989;28;20212;-59
2022/11/25 05:45:12;;;;;;;3.50;2.20;;;;;;;;;;5031044;28;20210;-59
2022/11/25 05:47:40;;;;;;;2.37;2.17;;;;;;;;;;5031113;28;20217;-60
2022/11/25 05:50:08;;;;;;;5.03;2.53;;;;;;;;;;5037231;28;20639;-60
2022/11/25 05:52:35;;;;;;;2.10;1.93;;;;;;;;;;5049459;28;20264;-59
2022/11/25 05:55:02;;;;;;;2.20;1.90;;;;;;;;;;5050859;28;20595;-59
2022/11/25 05:57:29;;;;;;;3.60;2.03;;;;;;;;;;5045569;28;20232;-60
2022/11/25 05:59:56;;;;;;;9.80;2.30;;;;;;;;;;5032075;28;20207;-60
2022/11/25 06:02:24;;;;;;;1.63;1.50;;;;;;;;;;5034792;28;20229;-60
2022/11/25 06:04:52;;;;;;;5.80;2.23;;;;;;;;;;5048444;28;20212;-60
2022/11/25 06:07:19;;;;;;;8.60;3.50;;;;;;;;;;5038492;28;20682;-59
2022/11/25 06:09:46;;;;;;;2.83;2.63;;;;;;;;;;5037006;28;20232;-60
2022/11/25 06:12:13;;;;;;;4.13;2.47;;;;;;;;;;5034660;28;20207;-60
2022/11/25 06:14:40;;;;;;;9.80;2.50;;;;;;;;;;5034682;28;20209;-61
2022/11/25 06:17:08;;;;;;;2.47;2.20;;;;;;;;;;5039050;28;20210;-59
2022/11/25 06:19:38;;;;;;;2.63;1.93;;;;;;;;;;5042190;28;20204;-60
2022/11/25 06:22:07;;;;;;;2.77;1.97;;;;;;;;;;5046705;28;20230;-60
2022/11/25 06:24:34;;;;;;;7.53;3.03;;;;;;;;;;5030285;28;20224;-59
2022/11/25 06:27:02;;;;;;;2.10;1.93;;;;;;;;;;5042785;28;20213;-60
2022/11/25 06:29:29;;;;;;;7.00;3.00;;;;;;;;;;5033034;28;20282;-60
2022/11/25 06:31:57;;;;;;;4.03;2.03;;;;;;;;;;5032787;28;20259;-60
2022/11/25 06:34:25;;;;;;;2.87;1.97;;;;;;;;;;5032334;28;20202;-58
2022/11/25 06:36:52;;;;;;;5.60;2.63;;;;;;;;;;5035860;28;20632;-60
2022/11/25 06:39:22;;;;;;;4.03;2.40;;;;;;;;;;5039353;28;20715;-59
2022/11/25 06:41:50;;;;;;;2.47;1.93;;;;;;;;;;5045589;28;20266;-59
2022/11/25 06:44:17;;;;;;;3.63;2.43;;;;;;;;;;5045787;28;20211;-59
2022/11/25 06:46:45;;;;;;;4.97;2.60;;;;;;;;;;5035762;28;20208;-60
2022/11/25 06:49:12;;;;;;;2.93;2.33;;;;;;;;;;5037729;28;20220;-59
2022/11/25 06:51:40;;;;;;;4.77;2.80;;;;;;;;;;5050900;28;20294;-60
2022/11/25 06:54:09;;;;;;;2.63;2.43;;;;;;;;;;5046762;28;20217;-59
2022/11/25 06:56:38;;;;;;;5.30;2.93;;;;;;;;;;5052019;28;20222;-59
2022/11/25 06:59:05;;;;;;;5.13;2.50;;;;;;;;;;5034628;28;20489;-59
2022/11/25 07:01:32;;;;;;;3.83;2.40;;;;;;;;;;5031730;28;20216;-59
2022/11/25 07:04:00;;;;;;;4.37;2.50;;;;;;;;;;5031105;28;20681;-58
2022/11/25 07:06:27;;;;;;;3.37;2.37;;;;;;;;;;5037884;28;20199;-59
2022/11/25 07:08:54;;;;;;;6.73;3.33;;;;;;;;;;5037462;28;20198;-61
2022/11/25 07:11:23;;;;;;;3.70;2.63;;;;;;;;;;5047768;28;20238;-58
2022/11/25 07:13:53;;;;;;;5.73;2.17;;;;;;;;;;5028175;28;20678;-59
2022/11/25 07:16:20;;;;;;;3.83;2.50;;;;;;;;;;5029473;28;20250;-58
2022/11/25 07:18:47;;;;;;;2.70;2.50;;;;;;;;;;5029376;28;20235;-59
2022/11/25 07:21:15;;;;;;;4.83;2.47;;;;;;;;;;5029187;28;20214;-62
2022/11/25 07:23:43;;;;;;;2.53;2.43;;;;;;;;;;5048084;28;20207;-63
2022/11/25 07:26:11;;;;;;;5.23;2.27;;;;;;;;;;5037612;28;20743;-60
2022/11/25 07:28:38;;;;;;;3.60;2.30;;;;;;;;;;5029235;28;20307;-59
2022/11/25 07:31:08;;;;;;;6.17;3.47;;;;;;;;;;5029366;28;20209;-59
2022/11/25 07:33:36;;;;;;;4.37;3.33;;;;;;;;;;5029077;28;20613;-61
2022/11/25 07:36:04;;;;;;;10.60;3.17;;;;;;;;;;5031138;28;20201;-59
2022/11/25 07:38:31;;;;;;;4.57;3.23;;;;;;;;;;5029528;28;20235;-60
2022/11/25 07:41:03;;;;;;;3.77;3.43;;;;;;;;;;5036404;28;20214;-61
2022/11/25 07:43:52;;;;;;;4.13;2.53;;;;;;;;;;5048703;28;20669;-61
2022/11/25 07:46:21;;;;;;;4.50;2.90;;;;;;;;;;5025849;28;21020;-60
2022/11/25 07:48:48;;;;;;;4.60;2.47;;;;;;;;;;5043091;28;20657;-61
2022/11/25 07:53:59;;;;;;;5.10;3.10;;;;;;;;;;5030421;28;20748;-60
2022/11/25 07:56:26;;;;;;;4.83;3.67;;;;;;;;;;5048527;28;20312;-60
2022/11/25 07:58:54;;;;;;;7.40;3.27;;;;;;;;;;5027388;28;20244;-60
2022/11/25 08:01:22;;;;;;;9.20;3.03;;;;;;;;;;5028173;28;20212;-60
2022/11/25 08:03:50;;;;;;;4.77;2.77;;;;;;;;;;5027663;28;20205;-60
2022/11/25 08:06:19;;;;;;;3.27;2.20;;;;;;;;;;5028454;28;20216;-60
2022/11/25 08:08:46;;;;;;;3.20;3.00;;;;;;;;;;5028606;28;20204;-60
2022/11/25 08:11:14;;;;;;;6.70;2.30;;;;;;;;;;5028323;28;20885;-60
2022/11/25 08:13:41;;;;;;;3.43;2.27;;;;;;;;;;5045109;28;20223;-61
2022/11/25 08:16:09;;;;;;;2.67;2.47;;;;;;;;;;5046381;28;20223;-60
2022/11/25 08:18:37;;;;;;;4.30;2.33;;;;;;;;;;5048119;28;20235;-61
2022/11/25 08:21:05;;;;;;;9.27;2.37;;;;;;;;;;5048456;28;20215;-61
2022/11/25 08:23:33;;;;;;;3.13;2.60;;;;;;;;;;5048291;28;20215;-60
2022/11/25 08:26:03;;;;;;;2.83;2.17;;;;;;;;;;5048211;28;20292;-60
2022/11/25 08:28:30;;;;;;;2.60;2.40;;;;;;;;;;5032751;28;20215;-60
2022/11/25 08:31:02;;;;;;;3.03;2.37;;;;;;;;;;5028322;28;20216;-60
2022/11/25 08:33:29;;;;;;;3.63;2.77;;;;;;;;;;5027998;28;20220;-60
2022/11/25 08:35:57;;;;;;;6.13;2.47;;;;;;;;;;5028207;28;20216;-60
2022/11/25 08:38:25;;;;;;;7.43;2.60;;;;;;;;;;5028056;28;20224;-61
2022/11/25 08:40:52;;;;;;;3.37;2.60;;;;;;;;;;5027837;28;20295;-61
2022/11/25 08:43:20;;;;;;;2.13;2.03;;;;;;;;;;5027682;28;20211;-61
2022/11/25 08:45:47;;;;;;;5.67;3.00;;;;;;;;;;5028335;28;20932;-60
2022/11/25 08:48:15;;;;;;;4.93;3.27;;;;;;;;;;5027934;28;20208;-60
2022/11/25 08:50:45;;;;;;;3.90;2.90;;;;;;;;;;5027923;28;20679;-60
2022/11/25 08:53:17;;;;;;;2.90;2.70;;;;;;;;;;5027458;28;20208;-60
2022/11/25 08:55:44;;;;;;;3.83;3.23;;;;;;;;;;5027934;28;20236;-60
2022/11/25 08:58:12;;;;;;;8.73;2.60;;;;;;;;;;5030932;28;20258;-60
2022/11/25 09:00:39;;;;;;;2.47;2.37;;;;;;;;;;5032265;28;20204;-60
2022/11/25 09:03:07;;;;;;;4.83;2.13;;;;;;;;;;5031366;28;20686;-60
2022/11/25 09:05:34;;;;;;;2.47;2.23;;;;;;;;;;5031843;28;20666;-60
2022/11/25 09:08:02;;;;;;;2.50;2.33;;;;;;;;;;5031854;28;20224;-60
2022/11/25 09:10:30;;;;;;;2.23;2.03;;;;;;;;;;5031710;28;20212;-61
2022/11/25 09:12:58;;;;;;;4.70;2.50;;;;;;;;;;5031229;28;20212;-60
2022/11/25 09:15:26;;;;;;;4.17;2.20;;;;;;;;;;5031779;28;20217;-60
2022/11/25 09:17:58;;;;;;;2.47;2.27;;;;;;;;;;5031415;28;20235;-60
2022/11/25 09:20:25;;;;;;;5.17;2.67;;;;;;;;;;5031727;28;20288;-60
2022/11/25 09:22:52;;;;;;;4.10;2.20;;;;;;;;;;5031557;28;20223;-60
2022/11/25 09:25:20;;;;;;;3.60;2.30;;;;;;;;;;5031359;28;20217;-61
2022/11/25 09:27:48;;;;;;;2.50;2.23;;;;;;;;;;5031253;28;20303;-60
2022/11/25 09:30:16;;;;;;;2.10;2.00;;;;;;;;;;5031240;28;20584;-60
2022/11/25 09:32:43;;;;;;;6.33;2.37;;;;;;;;;;5031025;28;20218;-61
2022/11/25 09:35:10;;;;;;;3.37;2.50;;;;;;;;;;5031561;28;20208;-61
2022/11/25 09:37:38;;;;;;;4.63;2.57;;;;;;;;;;5031373;28;20922;-61
2022/11/25 09:40:06;;;;;;;2.47;2.37;;;;;;;;;;5026899;28;20232;-61
2022/11/25 09:48:20;;;;;;;2.40;2.20;;;;;;;;;;5030755;28;20955;-61
2022/11/25 09:50:54;;;;;;;2.57;2.13;;;;;;;;;;5030831;28;20212;-61
2022/11/25 09:53:27;;;;;;;3.07;2.23;;;;;;;;;;5030926;28;20220;-62
2022/11/25 09:55:59;;;;;;;2.07;1.97;;;;;;;;;;5030463;28;20932;-60
2022/11/25 09:58:30;;;;;;;2.17;1.93;;;;;;;;;;5043662;28;20297;-60
2022/11/25 10:01:00;;;;;;;2.80;2.10;;;;;;;;;;5049954;28;20670;-60
2022/11/25 10:03:32;;;;;;;5.83;2.23;;;;;;;;;;5050109;28;20215;-60
2022/11/25 10:06:02;;;;;;;1.97;1.87;;;;;;;;;;5050249;28;20269;-60
2022/11/25 10:08:32;;;;;;;2.70;2.50;;;;;;;;;;5048600;28;20307;-60
2022/11/25 10:11:03;;;;;;;3.67;2.10;;;;;;;;;;5050207;28;20310;-60
2022/11/25 10:13:34;;;;;;;5.40;2.33;;;;;;;;;;5050032;28;20211;-60
2022/11/25 10:16:05;;;;;;;2.07;1.73;;;;;;;;;;5049994;28;20207;-60
2022/11/25 10:18:38;;;;;;;3.40;1.87;;;;;;;;;;5050066;28;20223;-60
2022/11/25 10:21:05;;;;;;;4.13;2.20;;;;;;;;;;5050033;28;20203;-60
2022/11/25 10:23:32;;;;;;;2.23;2.03;;;;;;;;;;5047430;28;20573;-60
2022/11/25 10:26:01;;;;;;;2.87;2.60;;;;;;;;;;5029819;28;20318;-60
2022/11/25 10:28:30;;;;;;;2.63;2.43;;;;;;;;;;5029490;28;20209;-60
2022/11/25 10:31:01;;;;;;;2.30;1.93;;;;;;;;;;5029513;28;20208;-61
2022/11/25 10:33:32;;;;;;;2.00;1.90;;;;;;;;;;5029634;28;20306;-60
2022/11/25 10:36:01;;;;;;;2.23;1.87;;;;;;;;;;5029838;28;20220;-60
2022/11/25 10:38:31;;;;;;;3.17;2.43;;;;;;;;;;5029787;28;20683;-60
2022/11/25 10:40:58;;;;;;;4.00;2.27;;;;;;;;;;5029550;28;20216;-60
2022/11/25 10:43:25;;;;;;;5.53;2.53;;;;;;;;;;5029542;28;20216;-60
2022/11/25 10:45:58;;;;;;;2.33;2.23;;;;;;;;;;5029385;28;20208;-60
2022/11/25 10:48:38;;;;;;;2.43;2.23;;;;;;;;;;5029460;28;20726;-60
2022/11/25 10:51:11;;;;;;;6.03;2.77;;;;;;;;;;5029672;28;20212;-61
2022/11/25 10:53:39;;;;;;;2.47;2.10;;;;;;;;;;5029545;28;20219;-60
2022/11/25 10:56:10;;;;;;;2.67;2.47;;;;;;;;;;5029082;28;20786;-60
2022/11/25 10:58:38;;;;;;;2.83;2.53;;;;;;;;;;5028729;28;20244;-62
2022/11/25 11:01:06;;;;;;;2.30;2.13;;;;;;;;;;5029866;28;20624;-62
2022/11/25 11:03:35;;;;;;;3.13;1.97;;;;;;;;;;5029644;28;20208;-61
2022/11/25 11:06:02;;;;;;;3.50;2.33;;;;;;;;;;5029775;28;20231;-60
2022/11/25 11:08:37;;;;;;;3.23;2.47;;;;;;;;;;5029829;28;20220;-61
2022/11/25 11:11:15;;;;;;;3.17;2.17;;;;;;;;;;5029977;28;20203;-62
2022/11/25 11:13:42;;;;;;;2.40;2.20;;;;;;;;;;5029655;28;20204;-62
2022/11/25 11:16:22;;;;;;;4.00;2.10;;;;;;;;;;5029385;28;20679;-62
2022/11/25 11:18:50;;;;;;;2.23;2.13;;;;;;;;;;5029595;28;20216;-61
2022/11/25 11:21:22;;;;;;;2.40;2.20;;;;;;;;;;5029232;28;20236;-61
2022/11/25 11:23:50;;;;;;;3.23;2.33;;;;;;;;;;5029583;28;20691;-61
2022/11/25 11:26:23;;;;;;;2.60;2.40;;;;;;;;;;5029547;28;20220;-62
2022/11/25 11:28:57;;;;;;;4.60;2.53;;;;;;;;;;5029169;28;20212;-61
2022/11/25 11:31:27;;;;;;;3.13;2.57;;;;;;;;;;5029553;28;20219;-61
2022/11/25 11:33:58;;;;;;;3.30;2.83;;;;;;;;;;5029236;28;20204;-62
2022/11/25 11:36:39;;;;;;;5.03;2.77;;;;;;;;;;5029428;28;20223;-62
2022/11/25 11:39:17;;;;;;;4.07;2.53;;;;;;;;;;5029508;28;20759;-62
2022/11/25 11:41:46;;;;;;;2.73;2.53;;;;;;;;;;5029217;28;20204;-62
2022/11/25 11:44:19;;;;;;;2.10;2.00;;;;;;;;;;5029485;28;20204;-62
2022/11/25 11:46:51;;;;;;;2.60;2.40;;;;;;;;;;5029444;28;20227;-62
2022/11/25 11:49:36;;;;;;;4.53;2.50;;;;;;;;;;5028923;28;20576;-60
2022/11/25 11:52:09;;;;;;;3.00;2.13;;;;;;;;;;5017581;28;20698;-60
2022/11/25 11:54:40;;;;;;;2.43;2.20;;;;;;;;;;5028428;28;20240;-60
2022/11/25 11:57:11;;;;;;;1.93;1.77;;;;;;;;;;5028564;28;20208;-60
2022/11/25 11:59:47;;;;;;;6.37;2.53;;;;;;;;;;5028001;28;20244;-61
2022/11/25 12:02:22;;;;;;;2.13;1.97;;;;;;;;;;5028538;28;20347;-60
2022/11/25 12:04:53;;;;;;;3.90;2.20;;;;;;;;;;5028768;28;20204;-60
2022/11/25 12:07:24;;;;;;;5.93;2.30;;;;;;;;;;5028692;28;20209;-60
2022/11/25 12:09:55;;;;;;;3.60;2.23;;;;;;;;;;5028536;28;20216;-60
2022/11/25 12:12:25;;;;;;;2.27;1.90;;;;;;;;;;5028515;28;20295;-59
2022/11/25 12:14:58;;;;;;;2.47;2.27;;;;;;;;;;5028366;28;20702;-60
2022/11/25 12:17:27;;;;;;;3.63;2.47;;;;;;;;;;5028247;28;20204;-60
2022/11/25 12:19:57;;;;;;;4.07;2.50;;;;;;;;;;5028253;28;20232;-61
2022/11/25 12:22:29;;;;;;;2.17;2.07;;;;;;;;;;5028187;28;20687;-61
2022/11/25 12:24:59;;;;;;;3.80;2.63;;;;;;;;;;5028084;28;20679;-61
2022/11/25 12:27:28;;;;;;;5.90;2.30;;;;;;;;;;5028084;28;20686;-61
2022/11/25 12:29:57;;;;;;;2.23;2.10;;;;;;;;;;5028207;28;20208;-61
2022/11/25 12:32:34;;;;;;;3.77;2.70;;;;;;;;;;5027255;28;20208;-60
2022/11/25 12:35:02;;;;;;;5.23;2.47;;;;;;;;;;5028243;28;20226;-60
2022/11/25 12:37:34;;;;;;;2.57;2.37;;;;;;;;;;5028071;28;20231;-61
2022/11/25 12:40:05;;;;;;;3.73;2.37;;;;;;;;;;5028042;28;20243;-60
2022/11/25 12:42:33;;;;;;;5.00;2.00;;;;;;;;;;5028179;28;20226;-61
2022/11/25 12:45:03;;;;;;;3.87;2.03;;;;;;;;;;5028305;28;20214;-61
2022/11/25 12:47:30;;;;;;;7.27;2.87;;;;;;;;;;5027991;28;20586;-60
2022/11/25 12:49:57;;;;;;;2.37;2.20;;;;;;;;;;5027920;28;20204;-60
2022/11/25 12:52:40;;;;;;;2.97;2.77;;;;;;;;;;5027860;28;20216;-61
2022/11/25 12:55:10;;;;;;;4.37;2.30;;;;;;;;;;5028035;28;20232;-60
2022/11/25 12:57:51;;;;;;;2.97;2.77;;;;;;;;;;5027834;28;20212;-61
2022/11/25 13:00:20;;;;;;;2.67;2.30;;;;;;;;;;5027131;28;20548;-60
2022/11/25 13:03:03;;;;;;;6.87;2.93;;;;;;;;;;5027998;28;20303;-60
2022/11/25 13:05:48;;;;;;;2.80;2.60;;;;;;;;;;5028087;28;20212;-61
2022/11/25 13:08:23;;;;;;;7.47;3.27;;;;;;;;;;5027682;28;20219;-60
2022/11/25 13:11:09;;;;;;;7.37;2.63;;;;;;;;;;5027610;28;20212;-61
2022/11/25 13:13:47;;;;;;;3.67;2.40;;;;;;;;;;5027749;28;20212;-61
2022/11/25 13:16:15;;;;;;;3.20;2.70;;;;;;;;;;5027852;28;20233;-60
2022/11/25 13:18:43;;;;;;;3.00;2.50;;;;;;;;;;5027462;28;20682;-61
2022/11/25 13:21:11;;;;;;;2.53;2.37;;;;;;;;;;5027499;28;20232;-61
2022/11/25 13:23:50;;;;;;;5.00;3.37;;;;;;;;;;5027704;28;20209;-60
2022/11/25 13:26:36;;;;;;;5.30;2.77;;;;;;;;;;5027544;28;20204;-60
2022/11/25 13:29:07;;;;;;;5.07;2.60;;;;;;;;;;5035719;28;20266;-61
2022/11/25 13:31:34;;;;;;;2.77;2.53;;;;;;;;;;5036618;28;20207;-61
2022/11/25 13:34:09;;;;;;;4.23;2.67;;;;;;;;;;5026674;28;20216;-61
2022/11/25 13:36:46;;;;;;;2.23;2.07;;;;;;;;;;5027114;28;20211;-60
2022/11/25 13:39:16;;;;;;;5.43;2.50;;;;;;;;;;5032007;28;20586;-61
2022/11/25 13:41:46;;;;;;;2.97;2.23;;;;;;;;;;5034459;28;20208;-61
2022/11/25 13:44:19;;;;;;;2.73;2.50;;;;;;;;;;5030091;28;20208;-61
2022/11/25 13:46:48;;;;;;;2.17;1.97;;;;;;;;;;5030374;28;20208;-61
2022/11/25 13:49:30;;;;;;;4.73;2.23;;;;;;;;;;5030349;28;20208;-61
2022/11/25 13:51:59;;;;;;;3.13;2.77;;;;;;;;;;5029812;28;20923;-61
2022/11/25 13:54:32;;;;;;;4.80;2.93;;;;;;;;;;5030201;28;20229;-60
2022/11/25 13:57:01;;;;;;;6.97;2.63;;;;;;;;;;5030854;28;20203;-63
2022/11/25 13:59:36;;;;;;;3.37;2.27;;;;;;;;;;5039371;28;20611;-63
2022/11/25 14:02:18;;;;;;;2.60;1.93;;;;;;;;;;5039257;28;20203;-63
2022/11/25 14:04:52;;;;;;;2.53;2.33;;;;;;;;;;5031495;28;20654;-62
2022/11/25 14:07:26;;;;;;;6.03;2.60;;;;;;;;;;5036027;28;20207;-63
2022/11/25 14:10:03;;;;;;;3.60;2.10;;;;;;;;;;5039067;28;20195;-63
2022/11/25 14:12:44;;;;;;;5.30;2.03;;;;;;;;;;5041892;28;20212;-63
2022/11/25 14:15:21;;;;;;;5.57;2.50;;;;;;;;;;5031624;28;20236;-63
2022/11/25 14:17:58;;;;;;;3.53;2.57;;;;;;;;;;5033758;28;20667;-63
2022/11/25 14:20:31;;;;;;;3.80;2.17;;;;;;;;;;5030684;28;20235;-63
2022/11/25 14:23:08;;;;;;;2.93;2.30;;;;;;;;;;5034872;28;20203;-62
2022/11/25 14:25:44;;;;;;;3.63;2.40;;;;;;;;;;5035689;28;20656;-63
2022/11/25 14:28:18;;;;;;;1.97;1.87;;;;;;;;;;5036858;28;20215;-63
2022/11/25 14:30:47;;;;;;;3.27;1.97;;;;;;;;;;5038999;28;20686;-61
2022/11/25 14:33:15;;;;;;;4.77;3.20;;;;;;;;;;5038266;28;20210;-62
2022/11/25 14:35:44;;;;;;;5.10;2.80;;;;;;;;;;5038896;28;20577;-62
2022/11/25 14:38:14;;;;;;;2.43;2.30;;;;;;;;;;5038346;28;20205;-62
2022/11/25 14:40:44;;;;;;;3.53;2.40;;;;;;;;;;5038329;28;20224;-62
2022/11/25 14:43:13;;;;;;;5.40;2.57;;;;;;;;;;5037498;28;20207;-62
2022/11/25 14:45:40;;;;;;;3.13;2.30;;;;;;;;;;5037384;28;20195;-62
2022/11/25 14:48:14;;;;;;;2.40;2.20;;;;;;;;;;5039115;28;20197;-63
2022/11/25 14:50:41;;;;;;;2.43;2.20;;;;;;;;;;5038443;28;20208;-63
2022/11/25 14:53:09;;;;;;;2.87;2.50;;;;;;;;;;5038748;28;20197;-64
2022/11/25 14:55:36;;;;;;;2.53;2.33;;;;;;;;;;5038339;28;20234;-63
2022/11/25 14:58:04;;;;;;;2.37;2.17;;;;;;;;;;5037965;28;20240;-63
2022/11/25 15:00:32;;;;;;;3.20;2.30;;;;;;;;;;5039770;28;20227;-63
2022/11/25 15:03:00;;;;;;;2.40;2.20;;;;;;;;;;5040181;28;20323;-63
2022/11/25 15:05:31;;;;;;;3.27;2.97;;;;;;;;;;5037599;28;20204;-63
2022/11/25 15:08:00;;;;;;;3.87;2.27;;;;;;;;;;5039157;28;20295;-63
2022/11/25 15:10:30;;;;;;;6.53;2.40;;;;;;;;;;5030432;28;20291;-63